sensor_id;sensor_type;location;lat;lon;timestamp;temperature;humidity
30983;DHT22;17660;52.578;13.288;2023-04-24T00:02:12;16.20;88.80
30983;DHT22;17660;52.578;13.288;2023-04-24T00:04:39;16.20;89.10
30983;DHT22;17660;52.578;13.288;2023-04-24T00:07:06;16.20;89.30
30983;DHT22;17660;52.578;13.288;2023-04-24T00:09:33;16.20;89.60
30983;DHT22;17660;52.578;13.288;2023-04-24T00:12:00;16.10;90.00
30983;DHT22;17660;52.578;13.288;2023-04-24T00:14:28;16.10;90.10
30983;DHT22;17660;52.578;13.288;2023-04-24T00:16:55;16.10;90.20
30983;DHT22;17660;52.578;13.288;2023-04-24T00:19:22;16.10;90.30
30983;DHT22;17660;52.578;13.288;2023-04-24T00:21:48;16.10;90.40
30983;DHT22;17660;52.578;13.288;2023-04-24T00:24:18;16.10;90.60
30983;DHT22;17660;52.578;13.288;2023-04-24T00:26:45;16.10;90.80
30983;DHT22;17660;52.578;13.288;2023-04-24T00:29:11;16.10;91.00
30983;DHT22;17660;52.578;13.288;2023-04-24T00:31:38;16.10;91.10
30983;DHT22;17660;52.578;13.288;2023-04-24T00:34:05;16.10;91.20
30983;DHT22;17660;52.578;13.288;2023-04-24T00:36:32;16.00;91.30
30983;DHT22;17660;52.578;13.288;2023-04-24T00:38:58;16.00;91.50
30983;DHT22;17660;52.578;13.288;2023-04-24T00:41:26;16.10;91.60
30983;DHT22;17660;52.578;13.288;2023-04-24T00:43:53;16.00;91.80
30983;DHT22;17660;52.578;13.288;2023-04-24T00:46:20;16.00;91.90
30983;DHT22;17660;52.578;13.288;2023-04-24T00:48:47;15.90;92.20
30983;DHT22;17660;52.578;13.288;2023-04-24T00:51:13;15.90;92.30
30983;DHT22;17660;52.578;13.288;2023-04-24T00:53:40;16.00;92.50
30983;DHT22;17660;52.578;13.288;2023-04-24T00:56:06;16.00;92.50
30983;DHT22;17660;52.578;13.288;2023-04-24T00:58:33;16.00;92.60
30983;DHT22;17660;52.578;13.288;2023-04-24T01:01:00;16.00;92.70
30983;DHT22;17660;52.578;13.288;2023-04-24T01:03:29;16.00;92.80
30983;DHT22;17660;52.578;13.288;2023-04-24T01:05:57;16.00;93.00
30983;DHT22;17660;52.578;13.288;2023-04-24T01:08:24;15.90;93.10
30983;DHT22;17660;52.578;13.288;2023-04-24T01:10:51;16.00;93.30
30983;DHT22;17660;52.578;13.288;2023-04-24T01:13:19;15.80;93.70
30983;DHT22;17660;52.578;13.288;2023-04-24T01:15:45;15.60;94.10
30983;DHT22;17660;52.578;13.288;2023-04-24T01:18:13;15.70;94.20
30983;DHT22;17660;52.578;13.288;2023-04-24T01:20:40;15.80;94.20
30983;DHT22;17660;52.578;13.288;2023-04-24T01:23:07;15.90;94.30
30983;DHT22;17660;52.578;13.288;2023-04-24T01:25:34;15.90;94.30
30983;DHT22;17660;52.578;13.288;2023-04-24T01:28:00;15.80;94.80
30983;DHT22;17660;52.578;13.288;2023-04-24T01:30:27;15.80;95.30
30983;DHT22;17660;52.578;13.288;2023-04-24T01:32:54;15.80;95.70
30983;DHT22;17660;52.578;13.288;2023-04-24T01:35:21;15.80;95.80
30983;DHT22;17660;52.578;13.288;2023-04-24T01:37:48;15.90;95.90
30983;DHT22;17660;52.578;13.288;2023-04-24T01:40:15;15.90;96.10
30983;DHT22;17660;52.578;13.288;2023-04-24T01:42:42;15.90;96.40
30983;DHT22;17660;52.578;13.288;2023-04-24T01:45:10;16.00;96.50
30983;DHT22;17660;52.578;13.288;2023-04-24T01:47:37;16.00;96.50
30983;DHT22;17660;52.578;13.288;2023-04-24T01:50:04;16.00;96.70
30983;DHT22;17660;52.578;13.288;2023-04-24T01:52:31;16.00;96.70
30983;DHT22;17660;52.578;13.288;2023-04-24T01:54:59;15.80;97.30
30983;DHT22;17660;52.578;13.288;2023-04-24T01:57:26;15.60;97.80
30983;DHT22;17660;52.578;13.288;2023-04-24T01:59:53;15.70;97.70
30983;DHT22;17660;52.578;13.288;2023-04-24T02:02:19;15.70;97.80
30983;DHT22;17660;52.578;13.288;2023-04-24T02:04:47;15.70;97.80
30983;DHT22;17660;52.578;13.288;2023-04-24T02:07:14;15.80;97.70
30983;DHT22;17660;52.578;13.288;2023-04-24T02:09:41;15.80;97.70
30983;DHT22;17660;52.578;13.288;2023-04-24T02:12:08;15.90;97.80
30983;DHT22;17660;52.578;13.288;2023-04-24T02:14:34;15.80;97.90
30983;DHT22;17660;52.578;13.288;2023-04-24T02:17:01;15.70;98.00
30983;DHT22;17660;52.578;13.288;2023-04-24T02:19:27;15.70;98.00
30983;DHT22;17660;52.578;13.288;2023-04-24T02:21:54;15.70;98.30
30983;DHT22;17660;52.578;13.288;2023-04-24T02:24:21;15.70;98.30
30983;DHT22;17660;52.578;13.288;2023-04-24T02:26:47;15.70;98.40
30983;DHT22;17660;52.578;13.288;2023-04-24T02:29:14;15.70;98.40
30983;DHT22;17660;52.578;13.288;2023-04-24T02:31:41;15.70;98.30
30983;DHT22;17660;52.578;13.288;2023-04-24T02:34:10;15.70;98.30
30983;DHT22;17660;52.578;13.288;2023-04-24T02:36:36;15.70;98.40
30983;DHT22;17660;52.578;13.288;2023-04-24T02:39:03;15.70;98.50
30983;DHT22;17660;52.578;13.288;2023-04-24T02:41:30;15.70;98.60
30983;DHT22;17660;52.578;13.288;2023-04-24T02:43:58;15.70;98.60
30983;DHT22;17660;52.578;13.288;2023-04-24T02:46:25;15.70;98.70
30983;DHT22;17660;52.578;13.288;2023-04-24T02:48:52;15.70;98.80
30983;DHT22;17660;52.578;13.288;2023-04-24T02:51:19;15.70;99.00
30983;DHT22;17660;52.578;13.288;2023-04-24T02:53:45;15.60;99.10
30983;DHT22;17660;52.578;13.288;2023-04-24T02:56:12;15.60;99.20
30983;DHT22;17660;52.578;13.288;2023-04-24T02:58:39;15.60;99.30
30983;DHT22;17660;52.578;13.288;2023-04-24T03:01:05;15.40;99.60
30983;DHT22;17660;52.578;13.288;2023-04-24T03:03:32;15.40;99.60
30983;DHT22;17660;52.578;13.288;2023-04-24T03:05:59;15.50;99.60
30983;DHT22;17660;52.578;13.288;2023-04-24T03:08:26;15.50;99.40
30983;DHT22;17660;52.578;13.288;2023-04-24T03:10:52;15.40;99.90
30983;DHT22;17660;52.578;13.288;2023-04-24T03:13:19;15.40;99.90
30983;DHT22;17660;52.578;13.288;2023-04-24T03:15:46;15.40;99.90
30983;DHT22;17660;52.578;13.288;2023-04-24T03:18:13;15.30;99.90
30983;DHT22;17660;52.578;13.288;2023-04-24T03:20:40;15.30;99.90
30983;DHT22;17660;52.578;13.288;2023-04-24T03:23:06;15.10;99.90
30983;DHT22;17660;52.578;13.288;2023-04-24T03:25:33;15.10;99.90
30983;DHT22;17660;52.578;13.288;2023-04-24T03:28:00;14.90;99.90
30983;DHT22;17660;52.578;13.288;2023-04-24T03:30:26;14.90;99.90
30983;DHT22;17660;52.578;13.288;2023-04-24T03:32:53;15.00;99.90
30983;DHT22;17660;52.578;13.288;2023-04-24T03:35:20;14.90;99.90
30983;DHT22;17660;52.578;13.288;2023-04-24T03:37:48;15.00;99.90
30983;DHT22;17660;52.578;13.288;2023-04-24T03:40:14;15.00;99.90
30983;DHT22;17660;52.578;13.288;2023-04-24T03:42:41;15.10;99.90
30983;DHT22;17660;52.578;13.288;2023-04-24T03:45:08;14.90;99.90
30983;DHT22;17660;52.578;13.288;2023-04-24T03:47:35;14.90;99.90
30983;DHT22;17660;52.578;13.288;2023-04-24T03:50:01;14.80;99.90
30983;DHT22;17660;52.578;13.288;2023-04-24T03:52:28;14.90;99.90
30983;DHT22;17660;52.578;13.288;2023-04-24T03:54:54;14.90;99.90
30983;DHT22;17660;52.578;13.288;2023-04-24T03:57:21;15.00;99.90
30983;DHT22;17660;52.578;13.288;2023-04-24T03:59:48;15.00;99.90
30983;DHT22;17660;52.578;13.288;2023-04-24T04:02:15;15.00;99.90
30983;DHT22;17660;52.578;13.288;2023-04-24T04:04:41;15.10;99.90
30983;DHT22;17660;52.578;13.288;2023-04-24T04:07:08;15.10;99.90
30983;DHT22;17660;52.578;13.288;2023-04-24T04:09:35;15.20;99.90
30983;DHT22;17660;52.578;13.288;2023-04-24T04:12:02;15.20;99.90
30983;DHT22;17660;52.578;13.288;2023-04-24T04:14:29;15.20;99.90
30983;DHT22;17660;52.578;13.288;2023-04-24T04:16:55;15.20;99.90
30983;DHT22;17660;52.578;13.288;2023-04-24T04:19:22;15.20;99.90
30983;DHT22;17660;52.578;13.288;2023-04-24T04:21:49;15.20;99.90
30983;DHT22;17660;52.578;13.288;2023-04-24T04:24:19;15.10;99.90
30983;DHT22;17660;52.578;13.288;2023-04-24T04:26:47;15.00;99.90
30983;DHT22;17660;52.578;13.288;2023-04-24T04:29:13;14.80;99.90
30983;DHT22;17660;52.578;13.288;2023-04-24T04:31:42;14.80;99.90
30983;DHT22;17660;52.578;13.288;2023-04-24T04:34:09;14.80;99.90
30983;DHT22;17660;52.578;13.288;2023-04-24T04:36:36;14.80;99.90
30983;DHT22;17660;52.578;13.288;2023-04-24T04:39:03;14.90;99.90
30983;DHT22;17660;52.578;13.288;2023-04-24T04:41:30;14.80;99.90
30983;DHT22;17660;52.578;13.288;2023-04-24T04:43:57;14.70;99.90
30983;DHT22;17660;52.578;13.288;2023-04-24T04:46:24;14.80;99.90
30983;DHT22;17660;52.578;13.288;2023-04-24T04:48:52;14.80;99.90
30983;DHT22;17660;52.578;13.288;2023-04-24T04:51:19;14.80;99.90
30983;DHT22;17660;52.578;13.288;2023-04-24T04:53:46;14.70;99.90
30983;DHT22;17660;52.578;13.288;2023-04-24T04:56:12;14.80;99.90
30983;DHT22;17660;52.578;13.288;2023-04-24T04:58:39;14.80;99.90
30983;DHT22;17660;52.578;13.288;2023-04-24T05:01:06;14.80;99.90
30983;DHT22;17660;52.578;13.288;2023-04-24T05:03:33;14.70;99.90
30983;DHT22;17660;52.578;13.288;2023-04-24T05:06:00;14.70;99.90
30983;DHT22;17660;52.578;13.288;2023-04-24T05:08:26;14.70;99.90
30983;DHT22;17660;52.578;13.288;2023-04-24T05:10:53;14.50;99.90
30983;DHT22;17660;52.578;13.288;2023-04-24T05:13:21;14.50;99.90
30983;DHT22;17660;52.578;13.288;2023-04-24T05:16:01;14.40;99.90
30983;DHT22;17660;52.578;13.288;2023-04-24T05:18:28;14.20;99.90
30983;DHT22;17660;52.578;13.288;2023-04-24T05:20:54;14.40;99.90
30983;DHT22;17660;52.578;13.288;2023-04-24T05:23:22;14.40;99.90
30983;DHT22;17660;52.578;13.288;2023-04-24T05:25:48;14.50;99.90
30983;DHT22;17660;52.578;13.288;2023-04-24T05:28:15;14.70;99.90
30983;DHT22;17660;52.578;13.288;2023-04-24T05:30:41;14.70;99.90
30983;DHT22;17660;52.578;13.288;2023-04-24T05:33:08;14.80;99.90
30983;DHT22;17660;52.578;13.288;2023-04-24T05:35:36;14.70;99.90
30983;DHT22;17660;52.578;13.288;2023-04-24T05:38:03;14.60;99.90
30983;DHT22;17660;52.578;13.288;2023-04-24T05:40:29;14.50;99.90
30983;DHT22;17660;52.578;13.288;2023-04-24T05:42:56;14.40;99.90
30983;DHT22;17660;52.578;13.288;2023-04-24T05:45:23;14.50;99.90
30983;DHT22;17660;52.578;13.288;2023-04-24T05:47:49;14.50;99.90
30983;DHT22;17660;52.578;13.288;2023-04-24T05:50:18;14.50;99.90
30983;DHT22;17660;52.578;13.288;2023-04-24T05:52:45;14.50;99.90
30983;DHT22;17660;52.578;13.288;2023-04-24T05:55:12;14.50;99.90
30983;DHT22;17660;52.578;13.288;2023-04-24T05:57:38;14.60;99.90
30983;DHT22;17660;52.578;13.288;2023-04-24T06:00:05;14.50;99.90
30983;DHT22;17660;52.578;13.288;2023-04-24T06:02:32;14.60;99.90
30983;DHT22;17660;52.578;13.288;2023-04-24T06:04:59;14.70;99.90
30983;DHT22;17660;52.578;13.288;2023-04-24T06:07:26;14.80;99.90
30983;DHT22;17660;52.578;13.288;2023-04-24T06:09:53;14.90;99.90
30983;DHT22;17660;52.578;13.288;2023-04-24T06:12:19;14.90;99.90
30983;DHT22;17660;52.578;13.288;2023-04-24T06:14:46;14.90;99.90
30983;DHT22;17660;52.578;13.288;2023-04-24T06:17:13;15.00;99.90
30983;DHT22;17660;52.578;13.288;2023-04-24T06:19:40;15.10;99.90
30983;DHT22;17660;52.578;13.288;2023-04-24T06:22:08;15.10;99.90
30983;DHT22;17660;52.578;13.288;2023-04-24T06:24:39;15.20;99.90
30983;DHT22;17660;52.578;13.288;2023-04-24T06:27:05;15.30;99.90
30983;DHT22;17660;52.578;13.288;2023-04-24T06:29:32;15.50;99.90
30983;DHT22;17660;52.578;13.288;2023-04-24T06:31:59;15.70;99.90
30983;DHT22;17660;52.578;13.288;2023-04-24T06:34:26;15.80;99.90
30983;DHT22;17660;52.578;13.288;2023-04-24T06:36:53;15.90;99.90
30983;DHT22;17660;52.578;13.288;2023-04-24T06:39:20;16.00;99.90
30983;DHT22;17660;52.578;13.288;2023-04-24T06:41:47;16.20;99.30
30983;DHT22;17660;52.578;13.288;2023-04-24T06:44:13;16.10;99.70
30983;DHT22;17660;52.578;13.288;2023-04-24T06:46:41;16.30;99.90
30983;DHT22;17660;52.578;13.288;2023-04-24T06:49:07;16.50;99.70
30983;DHT22;17660;52.578;13.288;2023-04-24T06:51:34;16.60;99.10
30983;DHT22;17660;52.578;13.288;2023-04-24T06:54:01;16.60;98.70
30983;DHT22;17660;52.578;13.288;2023-04-24T06:56:28;16.70;98.40
30983;DHT22;17660;52.578;13.288;2023-04-24T06:58:55;16.80;98.70
30983;DHT22;17660;52.578;13.288;2023-04-24T07:01:22;16.90;98.10
30983;DHT22;17660;52.578;13.288;2023-04-24T07:03:49;16.90;98.10
30983;DHT22;17660;52.578;13.288;2023-04-24T07:06:16;16.80;96.70
30983;DHT22;17660;52.578;13.288;2023-04-24T07:08:44;16.70;96.90
30983;DHT22;17660;52.578;13.288;2023-04-24T07:11:11;16.70;97.40
30983;DHT22;17660;52.578;13.288;2023-04-24T07:13:38;16.70;97.40
30983;DHT22;17660;52.578;13.288;2023-04-24T07:16:08;16.80;97.10
30983;DHT22;17660;52.578;13.288;2023-04-24T07:18:35;16.90;96.50
30983;DHT22;17660;52.578;13.288;2023-04-24T07:21:02;16.90;96.10
30983;DHT22;17660;52.578;13.288;2023-04-24T07:23:29;17.00;95.70
30983;DHT22;17660;52.578;13.288;2023-04-24T07:25:57;17.00;95.90
30983;DHT22;17660;52.578;13.288;2023-04-24T07:28:24;17.10;95.40
30983;DHT22;17660;52.578;13.288;2023-04-24T07:30:51;17.20;95.80
30983;DHT22;17660;52.578;13.288;2023-04-24T07:33:20;17.20;94.90
30983;DHT22;17660;52.578;13.288;2023-04-24T07:35:47;17.30;94.90
30983;DHT22;17660;52.578;13.288;2023-04-24T07:38:13;17.40;94.10
30983;DHT22;17660;52.578;13.288;2023-04-24T07:40:40;17.40;93.80
30983;DHT22;17660;52.578;13.288;2023-04-24T07:43:07;17.40;94.40
30983;DHT22;17660;52.578;13.288;2023-04-24T07:45:34;17.40;94.50
30983;DHT22;17660;52.578;13.288;2023-04-24T07:48:03;17.60;94.40
30983;DHT22;17660;52.578;13.288;2023-04-24T07:50:30;17.60;94.10
30983;DHT22;17660;52.578;13.288;2023-04-24T07:52:57;17.60;93.20
30983;DHT22;17660;52.578;13.288;2023-04-24T07:55:24;17.60;93.40
30983;DHT22;17660;52.578;13.288;2023-04-24T07:57:53;17.60;92.70
30983;DHT22;17660;52.578;13.288;2023-04-24T08:00:20;17.70;93.90
30983;DHT22;17660;52.578;13.288;2023-04-24T08:02:47;17.90;94.00
30983;DHT22;17660;52.578;13.288;2023-04-24T08:05:14;18.00;92.90
30983;DHT22;17660;52.578;13.288;2023-04-24T08:07:41;18.10;93.60
30983;DHT22;17660;52.578;13.288;2023-04-24T08:10:11;18.30;93.00
30983;DHT22;17660;52.578;13.288;2023-04-24T08:12:38;18.30;92.60
30983;DHT22;17660;52.578;13.288;2023-04-24T08:15:05;18.40;91.10
30983;DHT22;17660;52.578;13.288;2023-04-24T08:17:33;18.30;92.50
30983;DHT22;17660;52.578;13.288;2023-04-24T08:20:00;18.50;91.20
30983;DHT22;17660;52.578;13.288;2023-04-24T08:22:28;18.60;92.50
30983;DHT22;17660;52.578;13.288;2023-04-24T08:24:54;18.50;92.30
30983;DHT22;17660;52.578;13.288;2023-04-24T08:27:22;18.60;90.90
30983;DHT22;17660;52.578;13.288;2023-04-24T08:29:49;18.50;90.20
30983;DHT22;17660;52.578;13.288;2023-04-24T08:32:16;18.30;90.90
30983;DHT22;17660;52.578;13.288;2023-04-24T08:34:43;18.20;90.90
30983;DHT22;17660;52.578;13.288;2023-04-24T08:37:09;18.20;91.40
30983;DHT22;17660;52.578;13.288;2023-04-24T08:39:37;18.20;91.30
30983;DHT22;17660;52.578;13.288;2023-04-24T08:42:04;18.30;90.40
30983;DHT22;17660;52.578;13.288;2023-04-24T08:44:34;18.20;90.70
30983;DHT22;17660;52.578;13.288;2023-04-24T08:47:02;18.20;91.30
30983;DHT22;17660;52.578;13.288;2023-04-24T08:49:29;18.50;91.00
30983;DHT22;17660;52.578;13.288;2023-04-24T08:51:55;18.50;89.60
30983;DHT22;17660;52.578;13.288;2023-04-24T08:54:22;18.40;88.10
30983;DHT22;17660;52.578;13.288;2023-04-24T08:56:49;18.40;88.90
30983;DHT22;17660;52.578;13.288;2023-04-24T08:59:16;18.50;88.10
30983;DHT22;17660;52.578;13.288;2023-04-24T09:01:43;18.60;90.20
30983;DHT22;17660;52.578;13.288;2023-04-24T09:04:11;18.60;89.70
30983;DHT22;17660;52.578;13.288;2023-04-24T09:06:41;18.50;90.10
30983;DHT22;17660;52.578;13.288;2023-04-24T09:09:08;18.60;90.00
30983;DHT22;17660;52.578;13.288;2023-04-24T09:11:37;18.60;89.20
30983;DHT22;17660;52.578;13.288;2023-04-24T09:14:04;18.50;89.40
30983;DHT22;17660;52.578;13.288;2023-04-24T09:16:31;18.50;89.80
30983;DHT22;17660;52.578;13.288;2023-04-24T09:19:02;18.50;89.10
30983;DHT22;17660;52.578;13.288;2023-04-24T09:21:33;18.50;90.30
30983;DHT22;17660;52.578;13.288;2023-04-24T09:24:00;18.60;90.20
30983;DHT22;17660;52.578;13.288;2023-04-24T09:26:29;18.60;90.70
30983;DHT22;17660;52.578;13.288;2023-04-24T09:28:57;18.60;88.60
30983;DHT22;17660;52.578;13.288;2023-04-24T09:31:24;18.50;89.50
30983;DHT22;17660;52.578;13.288;2023-04-24T09:34:03;18.60;89.80
30983;DHT22;17660;52.578;13.288;2023-04-24T09:36:37;18.90;89.90
30983;DHT22;17660;52.578;13.288;2023-04-24T09:39:05;19.00;87.60
30983;DHT22;17660;52.578;13.288;2023-04-24T09:41:32;19.00;87.80
30983;DHT22;17660;52.578;13.288;2023-04-24T09:44:12;18.90;89.90
30983;DHT22;17660;52.578;13.288;2023-04-24T09:46:40;18.70;89.40
30983;DHT22;17660;52.578;13.288;2023-04-24T09:49:08;18.40;90.00
30983;DHT22;17660;52.578;13.288;2023-04-24T09:51:38;18.40;90.50
30983;DHT22;17660;52.578;13.288;2023-04-24T09:54:11;18.30;90.80
30983;DHT22;17660;52.578;13.288;2023-04-24T09:56:41;18.20;91.00
30983;DHT22;17660;52.578;13.288;2023-04-24T09:59:08;18.10;91.00
30983;DHT22;17660;52.578;13.288;2023-04-24T10:01:35;18.20;90.80
30983;DHT22;17660;52.578;13.288;2023-04-24T10:04:02;18.10;90.70
30983;DHT22;17660;52.578;13.288;2023-04-24T10:06:30;18.20;90.80
30983;DHT22;17660;52.578;13.288;2023-04-24T10:08:57;18.20;91.30
30983;DHT22;17660;52.578;13.288;2023-04-24T10:11:27;18.10;91.90
30983;DHT22;17660;52.578;13.288;2023-04-24T10:13:54;18.10;91.20
30983;DHT22;17660;52.578;13.288;2023-04-24T10:16:22;18.60;90.20
30983;DHT22;17660;52.578;13.288;2023-04-24T10:18:49;18.90;90.10
30983;DHT22;17660;52.578;13.288;2023-04-24T10:21:16;19.00;88.70
30983;DHT22;17660;52.578;13.288;2023-04-24T10:23:43;18.80;89.00
30983;DHT22;17660;52.578;13.288;2023-04-24T10:26:13;18.50;90.00
30983;DHT22;17660;52.578;13.288;2023-04-24T10:28:44;18.40;90.90
30983;DHT22;17660;52.578;13.288;2023-04-24T10:31:11;18.50;91.20
30983;DHT22;17660;52.578;13.288;2023-04-24T10:33:39;18.60;89.40
30983;DHT22;17660;52.578;13.288;2023-04-24T10:36:10;18.40;88.50
30983;DHT22;17660;52.578;13.288;2023-04-24T10:38:38;18.20;89.30
30983;DHT22;17660;52.578;13.288;2023-04-24T10:41:10;18.10;90.30
30983;DHT22;17660;52.578;13.288;2023-04-24T10:43:42;17.90;90.40
30983;DHT22;17660;52.578;13.288;2023-04-24T10:46:09;17.90;90.90
30983;DHT22;17660;52.578;13.288;2023-04-24T10:48:41;17.80;91.30
30983;DHT22;17660;52.578;13.288;2023-04-24T10:51:11;17.80;91.30
30983;DHT22;17660;52.578;13.288;2023-04-24T10:53:37;17.80;91.90
30983;DHT22;17660;52.578;13.288;2023-04-24T10:56:05;17.90;91.10
30983;DHT22;17660;52.578;13.288;2023-04-24T10:58:36;18.10;91.40
30983;DHT22;17660;52.578;13.288;2023-04-24T11:01:03;18.10;91.30
30983;DHT22;17660;52.578;13.288;2023-04-24T11:03:31;18.10;91.00
30983;DHT22;17660;52.578;13.288;2023-04-24T11:08:29;18.20;90.40
30983;DHT22;17660;52.578;13.288;2023-04-24T11:11:18;18.20;90.60
30983;DHT22;17660;52.578;13.288;2023-04-24T11:14:05;18.10;89.90
30983;DHT22;17660;52.578;13.288;2023-04-24T11:16:31;18.10;90.50
30983;DHT22;17660;52.578;13.288;2023-04-24T11:19:03;18.10;90.80
30983;DHT22;17660;52.578;13.288;2023-04-24T11:26:58;18.50;91.60
30983;DHT22;17660;52.578;13.288;2023-04-24T11:35:07;19.60;90.50
30983;DHT22;17660;52.578;13.288;2023-04-24T11:37:35;21.80;86.90
30983;DHT22;17660;52.578;13.288;2023-04-24T11:40:03;21.40;82.70
30983;DHT22;17660;52.578;13.288;2023-04-24T11:42:34;20.60;84.80
30983;DHT22;17660;52.578;13.288;2023-04-24T11:45:01;20.20;84.70
30983;DHT22;17660;52.578;13.288;2023-04-24T11:47:29;19.70;86.40
30983;DHT22;17660;52.578;13.288;2023-04-24T11:49:57;19.60;86.60
30983;DHT22;17660;52.578;13.288;2023-04-24T11:52:25;19.70;86.70
30983;DHT22;17660;52.578;13.288;2023-04-24T11:54:51;20.00;86.30
30983;DHT22;17660;52.578;13.288;2023-04-24T11:57:19;20.70;83.20
30983;DHT22;17660;52.578;13.288;2023-04-24T11:59:48;20.90;83.00
30983;DHT22;17660;52.578;13.288;2023-04-24T12:02:21;20.90;81.50
30983;DHT22;17660;52.578;13.288;2023-04-24T12:04:48;21.00;81.50
30983;DHT22;17660;52.578;13.288;2023-04-24T12:07:15;21.40;81.80
30983;DHT22;17660;52.578;13.288;2023-04-24T12:09:46;22.70;81.90
30983;DHT22;17660;52.578;13.288;2023-04-24T12:12:14;24.00;78.20
30983;DHT22;17660;52.578;13.288;2023-04-24T12:14:42;25.10;77.60
30983;DHT22;17660;52.578;13.288;2023-04-24T12:17:09;24.90;74.80
30983;DHT22;17660;52.578;13.288;2023-04-24T12:19:36;23.80;75.30
30983;DHT22;17660;52.578;13.288;2023-04-24T12:22:04;22.90;77.20
30983;DHT22;17660;52.578;13.288;2023-04-24T12:24:31;22.40;79.20
30983;DHT22;17660;52.578;13.288;2023-04-24T12:26:58;22.10;78.90
30983;DHT22;17660;52.578;13.288;2023-04-24T12:29:24;21.60;80.10
30983;DHT22;17660;52.578;13.288;2023-04-24T12:31:51;21.40;80.90
30983;DHT22;17660;52.578;13.288;2023-04-24T12:34:19;21.10;81.90
30983;DHT22;17660;52.578;13.288;2023-04-24T12:36:47;20.70;81.50
30983;DHT22;17660;52.578;13.288;2023-04-24T12:39:17;20.20;83.00
30983;DHT22;17660;52.578;13.288;2023-04-24T12:41:54;19.70;84.90
30983;DHT22;17660;52.578;13.288;2023-04-24T12:44:32;19.50;82.70
30983;DHT22;17660;52.578;13.288;2023-04-24T12:47:01;19.50;82.80
30983;DHT22;17660;52.578;13.288;2023-04-24T12:49:29;19.40;78.40
30983;DHT22;17660;52.578;13.288;2023-04-24T12:51:56;19.30;80.60
30983;DHT22;17660;52.578;13.288;2023-04-24T12:54:23;19.20;79.40
30983;DHT22;17660;52.578;13.288;2023-04-24T12:56:49;19.20;80.40
30983;DHT22;17660;52.578;13.288;2023-04-24T12:59:16;19.90;79.60
30983;DHT22;17660;52.578;13.288;2023-04-24T13:01:43;20.10;77.90
30983;DHT22;17660;52.578;13.288;2023-04-24T13:04:09;20.90;78.60
30983;DHT22;17660;52.578;13.288;2023-04-24T13:06:37;21.30;75.30
30983;DHT22;17660;52.578;13.288;2023-04-24T13:09:03;21.10;75.50
30983;DHT22;17660;52.578;13.288;2023-04-24T13:11:30;20.90;76.10
30983;DHT22;17660;52.578;13.288;2023-04-24T13:13:57;21.10;78.50
30983;DHT22;17660;52.578;13.288;2023-04-24T13:16:23;21.00;76.50
30983;DHT22;17660;52.578;13.288;2023-04-24T13:18:50;20.70;77.20
30983;DHT22;17660;52.578;13.288;2023-04-24T13:21:17;20.50;78.30
30983;DHT22;17660;52.578;13.288;2023-04-24T13:23:43;20.30;79.80
30983;DHT22;17660;52.578;13.288;2023-04-24T13:26:10;20.40;81.10
30983;DHT22;17660;52.578;13.288;2023-04-24T13:28:37;20.90;81.70
30983;DHT22;17660;52.578;13.288;2023-04-24T13:31:04;21.30;80.70
30983;DHT22;17660;52.578;13.288;2023-04-24T13:33:31;21.50;80.30
30983;DHT22;17660;52.578;13.288;2023-04-24T13:35:57;21.80;77.90
30983;DHT22;17660;52.578;13.288;2023-04-24T13:38:24;22.10;78.80
30983;DHT22;17660;52.578;13.288;2023-04-24T13:40:51;22.20;75.40
30983;DHT22;17660;52.578;13.288;2023-04-24T13:43:18;22.00;74.20
30983;DHT22;17660;52.578;13.288;2023-04-24T13:45:44;21.80;76.20
30983;DHT22;17660;52.578;13.288;2023-04-24T13:48:11;21.50;74.20
30983;DHT22;17660;52.578;13.288;2023-04-24T13:50:38;21.20;76.00
30983;DHT22;17660;52.578;13.288;2023-04-24T13:53:04;21.10;75.40
30983;DHT22;17660;52.578;13.288;2023-04-24T13:55:31;20.90;76.20
30983;DHT22;17660;52.578;13.288;2023-04-24T13:57:58;20.80;74.00
30983;DHT22;17660;52.578;13.288;2023-04-24T14:00:24;20.40;71.60
30983;DHT22;17660;52.578;13.288;2023-04-24T14:02:51;20.10;73.10
30983;DHT22;17660;52.578;13.288;2023-04-24T14:05:18;20.10;73.20
30983;DHT22;17660;52.578;13.288;2023-04-24T14:07:45;20.10;72.30
30983;DHT22;17660;52.578;13.288;2023-04-24T14:10:12;20.10;73.00
30983;DHT22;17660;52.578;13.288;2023-04-24T14:12:38;20.00;72.10
30983;DHT22;17660;52.578;13.288;2023-04-24T14:15:05;20.20;71.00
30983;DHT22;17660;52.578;13.288;2023-04-24T14:17:32;20.30;70.20
30983;DHT22;17660;52.578;13.288;2023-04-24T14:19:58;20.30;68.60
30983;DHT22;17660;52.578;13.288;2023-04-24T14:22:26;20.60;68.20
30983;DHT22;17660;52.578;13.288;2023-04-24T14:24:53;20.50;63.70
30983;DHT22;17660;52.578;13.288;2023-04-24T14:27:20;20.10;62.70
30983;DHT22;17660;52.578;13.288;2023-04-24T14:29:47;19.80;64.30
30983;DHT22;17660;52.578;13.288;2023-04-24T14:32:13;19.40;62.70
30983;DHT22;17660;52.578;13.288;2023-04-24T14:34:41;19.20;65.10
30983;DHT22;17660;52.578;13.288;2023-04-24T14:37:08;19.20;65.00
30983;DHT22;17660;52.578;13.288;2023-04-24T14:39:35;19.50;64.70
30983;DHT22;17660;52.578;13.288;2023-04-24T14:42:01;19.70;64.80
30983;DHT22;17660;52.578;13.288;2023-04-24T14:44:28;20.10;64.30
30983;DHT22;17660;52.578;13.288;2023-04-24T14:46:54;20.90;63.70
30983;DHT22;17660;52.578;13.288;2023-04-24T14:49:22;21.40;61.30
30983;DHT22;17660;52.578;13.288;2023-04-24T14:51:49;21.10;63.90
30983;DHT22;17660;52.578;13.288;2023-04-24T14:54:16;20.80;61.70
30983;DHT22;17660;52.578;13.288;2023-04-24T14:56:42;21.00;64.10
30983;DHT22;17660;52.578;13.288;2023-04-24T14:59:10;21.50;60.90
30983;DHT22;17660;52.578;13.288;2023-04-24T15:01:37;21.00;60.10
30983;DHT22;17660;52.578;13.288;2023-04-24T15:04:04;21.10;59.30
30983;DHT22;17660;52.578;13.288;2023-04-24T15:06:33;21.30;59.30
30983;DHT22;17660;52.578;13.288;2023-04-24T15:09:00;21.20;59.10
30983;DHT22;17660;52.578;13.288;2023-04-24T15:11:27;21.00;59.80
30983;DHT22;17660;52.578;13.288;2023-04-24T15:13:54;20.90;61.80
30983;DHT22;17660;52.578;13.288;2023-04-24T15:16:20;20.80;60.50
30983;DHT22;17660;52.578;13.288;2023-04-24T15:18:47;20.40;62.20
30983;DHT22;17660;52.578;13.288;2023-04-24T15:21:14;20.50;62.70
30983;DHT22;17660;52.578;13.288;2023-04-24T15:23:40;20.30;60.60
30983;DHT22;17660;52.578;13.288;2023-04-24T15:26:07;20.00;61.70
30983;DHT22;17660;52.578;13.288;2023-04-24T15:28:34;19.70;61.30
30983;DHT22;17660;52.578;13.288;2023-04-24T15:31:00;19.20;63.70